Time;durP1;ratioP1;P1;durP2;ratioP2;P2;SDS_P1;SDS_P2;PMS_P1;PMS_P2;Temp;Humidity;BMP_temperature;BMP_pressure;BME280_temperature;BME280_humidity;BME280_pressure;Samples;Min_cycle;Max_cycle;Signal;HPM_P1;HPM_P2
2023/05/23 00:01:06;;;;;;;;;35.00;29.67;;;;;18.19;61.79;101631.44;5077274;27;45364;-55
2023/05/23 00:03:32;;;;;;;;;33.67;22.00;;;;;18.19;61.93;101636.00;5077600;27;45386;-63
2023/05/23 00:05:58;;;;;;;;;30.67;25.67;;;;;18.16;62.11;101633.66;5077662;27;45396;-46
2023/05/23 00:08:24;;;;;;;;;39.67;30.33;;;;;18.16;62.18;101639.03;5077149;27;45268;-56
2023/05/23 00:10:49;;;;;;;;;30.67;24.00;;;;;18.16;61.82;101639.03;5077155;27;45251;-68
2023/05/23 00:13:15;;;;;;;;;29.67;28.00;;;;;18.13;61.57;101640.25;5077033;27;45540;-61
2023/05/23 00:15:41;;;;;;;;;29.00;23.00;;;;;18.10;61.30;101634.38;5077024;27;45586;-52
2023/05/23 00:18:14;;;;;;;;;31.67;25.67;;;;;18.04;61.81;101627.84;5077039;27;46293;-52
2023/05/23 00:20:41;;;;;;;;;26.00;25.00;;;;;18.01;61.74;101620.09;5075529;27;45498;-62
2023/05/23 00:23:12;;;;;;;;;31.00;24.00;;;;;18.02;61.38;101629.00;5076398;27;45430;-66
2023/05/23 00:25:39;;;;;;;;;29.33;25.00;;;;;17.97;61.72;101628.69;5076702;27;45309;-47
2023/05/23 00:28:05;;;;;;;;;36.67;30.67;;;;;17.94;61.36;101629.88;5076361;27;46963;-66
2023/05/23 00:30:32;;;;;;;;;26.67;26.33;;;;;17.91;60.99;101624.84;5076093;27;45531;-67
2023/05/23 00:32:57;;;;;;;;;34.33;21.67;;;;;17.89;61.75;101634.94;5076772;27;45418;-45
2023/05/23 00:35:23;;;;;;;;;30.67;27.67;;;;;17.73;61.63;101616.94;5076777;27;45488;-68
2023/05/23 00:37:50;;;;;;;;;26.67;21.00;;;;;17.83;61.36;101623.03;5076309;27;46240;-67
2023/05/23 00:40:16;;;;;;;;;28.33;24.33;;;;;17.85;61.80;101626.38;5076236;27;45360;-68
2023/05/23 00:42:41;;;;;;;;;26.00;22.67;;;;;17.84;61.38;101627.38;5076288;27;45219;-66
2023/05/23 00:45:07;;;;;;;;;24.33;20.33;;;;;17.83;61.89;101622.19;5076259;27;45350;-68
2023/05/23 00:47:33;;;;;;;;;33.33;24.33;;;;;17.77;61.44;101634.47;5075810;27;46096;-62
2023/05/23 00:49:58;;;;;;;;;35.33;23.33;;;;;17.75;61.64;101632.97;5076086;27;45252;-59
2023/05/23 00:52:24;;;;;;;;;27.33;23.67;;;;;17.73;61.34;101633.09;5076389;28;45493;-56
2023/05/23 00:54:49;;;;;;;;;29.67;23.00;;;;;17.68;61.93;101633.59;5076223;27;45349;-64
2023/05/23 00:57:15;;;;;;;;;29.00;24.67;;;;;17.64;62.05;101631.44;5076031;27;45935;-48
2023/05/23 00:59:41;;;;;;;;;24.00;20.67;;;;;17.54;61.74;101620.88;5076021;27;45463;-68
2023/05/23 01:02:07;;;;;;;;;27.33;21.67;;;;;17.43;61.98;101597.00;5075909;28;45454;-63
2023/05/23 01:04:33;;;;;;;;;23.00;19.67;;;;;17.55;62.01;101622.53;5076474;27;45414;-54
2023/05/23 01:06:59;;;;;;;;;25.67;23.33;;;;;17.44;62.14;101610.31;5075639;27;45407;-60
2023/05/23 01:09:27;;;;;;;;;36.00;26.00;;;;;17.51;62.09;101618.50;5076153;27;45430;-40
2023/05/23 01:12:22;;;;;;;;;29.33;24.00;;;;;17.46;61.77;101613.66;5075923;28;45808;-41
2023/05/23 01:15:11;;;;;;;;;23.33;19.00;;;;;17.42;61.76;101616.84;5094219;27;45345;-65
2023/05/23 01:17:48;;;;;;;;;33.67;21.33;;;;;17.37;61.62;101620.06;5093658;27;46080;-45
2023/05/23 01:20:21;;;;;;;;;40.33;23.67;;;;;17.36;61.81;101621.06;5093828;27;45401;-53
2023/05/23 01:23:01;;;;;;;;;26.33;18.33;;;;;17.37;61.08;101625.44;5094080;27;45336;-57
2023/05/23 01:26:05;;;;;;;;;30.33;26.00;;;;;17.35;61.23;101618.53;5093851;27;45936;-43
2023/05/23 01:28:36;;;;;;;;;28.33;21.00;;;;;17.34;61.48;101636.53;5032187;28;46314;-45
2023/05/23 01:31:05;;;;;;;;;41.33;33.67;;;;;17.34;61.54;101638.38;5033974;28;45635;-62
2023/05/23 01:33:31;;;;;;;;;28.33;25.33;;;;;17.29;61.60;101638.06;5036534;28;45466;-51
2023/05/23 01:36:00;;;;;;;;;36.33;28.33;;;;;17.27;61.03;101640.88;5036856;28;45901;-46
2023/05/23 01:38:25;;;;;;;;;26.67;22.00;;;;;17.21;61.63;101639.72;5036913;28;45617;-56
2023/05/23 01:40:50;;;;;;;;;24.67;19.00;;;;;17.19;61.62;101639.06;5036288;28;45470;-63
2023/05/23 01:43:16;;;;;;;;;25.00;22.67;;;;;17.19;61.75;101641.75;5036657;28;45431;-64
2023/05/23 01:45:42;;;;;;;;;22.67;18.67;;;;;17.16;62.01;101639.38;5036573;28;45459;-66
2023/05/23 01:48:10;;;;;;;;;30.00;23.67;;;;;17.15;62.02;101648.47;5035999;28;46332;-66
2023/05/23 01:50:36;;;;;;;;;24.00;22.33;;;;;17.09;62.08;101643.75;5036317;28;45372;-63
2023/05/23 01:53:02;;;;;;;;;28.00;22.00;;;;;17.12;62.24;101654.19;5016366;28;45433;-63
2023/05/23 01:55:28;;;;;;;;;29.33;23.67;;;;;17.08;62.17;101644.75;5016735;28;45417;-57
2023/05/23 01:57:56;;;;;;;;;30.33;19.67;;;;;17.04;61.83;101637.22;5016272;28;46143;-60
2023/05/23 02:00:22;;;;;;;;;24.67;19.33;;;;;17.02;62.36;101647.25;5075830;28;45455;-60
2023/05/23 02:02:47;;;;;;;;;27.00;20.33;;;;;17.01;62.58;101645.59;5078627;28;45340;-67
2023/05/23 02:05:13;;;;;;;;;25.67;24.67;;;;;17.00;62.35;101646.59;5078926;27;45327;-68
2023/05/23 02:07:38;;;;;;;;;24.67;21.00;;;;;17.01;62.02;101648.28;5078718;27;46960;-63
2023/05/23 02:10:06;;;;;;;;;34.33;23.33;;;;;16.95;62.50;101647.94;5078436;28;45371;-64
2023/05/23 02:12:32;;;;;;;;;28.00;22.00;;;;;16.86;62.66;101632.00;5078683;27;45325;-61
2023/05/23 02:14:57;;;;;;;;;22.00;21.67;;;;;16.95;62.82;101647.13;5078828;27;45370;-63
2023/05/23 02:17:23;;;;;;;;;30.00;21.00;;;;;16.94;62.69;101646.28;5078815;27;46156;-62
2023/05/23 02:19:48;;;;;;;;;26.33;24.00;;;;;16.93;62.78;101636.50;5078484;27;45341;-66
2023/05/23 02:22:14;;;;;;;;;27.67;19.33;;;;;16.88;62.53;101640.72;5078609;27;45295;-66
2023/05/23 02:24:39;;;;;;;;;28.67;24.33;;;;;16.87;62.84;101649.78;5078703;27;45450;-68
2023/05/23 02:27:05;;;;;;;;;38.67;25.00;;;;;16.89;62.78;101655.81;5078223;27;46951;-67
2023/05/23 02:29:30;;;;;;;;;28.33;21.67;;;;;16.83;62.71;101646.59;5078166;27;45285;-68
2023/05/23 02:31:55;;;;;;;;;31.00;23.00;;;;;16.87;62.28;101663.22;5078342;27;45420;-64
2023/05/23 02:34:21;;;;;;;;;33.67;23.67;;;;;16.83;63.24;101661.88;5078572;27;45491;-67
2023/05/23 02:36:46;;;;;;;;;31.67;19.67;;;;;16.82;63.60;101652.13;5078030;28;46048;-68
2023/05/23 02:39:11;;;;;;;;;34.33;25.67;;;;;16.79;62.66;101652.47;5078221;27;45320;-66
2023/05/23 02:41:37;;;;;;;;;32.67;23.33;;;;;16.76;63.69;101658.16;5077867;27;45394;-65
2023/05/23 02:44:02;;;;;;;;;25.33;23.67;;;;;16.76;64.04;101655.47;5077312;27;45371;-68
2023/05/23 02:46:28;;;;;;;;;30.67;21.33;;;;;16.78;64.10;101653.47;5078023;27;45916;-64
2023/05/23 02:48:53;;;;;;;;;22.33;18.00;;;;;16.79;63.88;101653.28;5077854;27;45368;-67
2023/05/23 02:51:18;;;;;;;;;30.67;25.67;;;;;16.81;63.61;101642.38;5078049;27;45318;-66
2023/05/23 02:53:44;;;;;;;;;23.67;21.00;;;;;16.80;63.83;101646.06;5078255;27;45414;-66
2023/05/23 02:56:10;;;;;;;;;33.00;26.00;;;;;16.77;63.64;101641.88;5077689;27;45446;-68
2023/05/23 02:58:35;;;;;;;;;33.33;28.67;;;;;16.74;63.91;101644.06;5077422;27;45431;-61
2023/05/23 03:01:02;;;;;;;;;31.67;24.00;;;;;16.77;63.89;101662.50;5077624;27;45319;-67
2023/05/23 03:03:27;;;;;;;;;33.33;24.67;;;;;16.68;64.00;101650.88;5077883;27;45350;-62
2023/05/23 03:05:53;;;;;;;;;33.33;25.33;;;;;16.71;63.86;101659.47;5077573;27;46142;-66
2023/05/23 03:08:21;;;;;;;;;34.33;27.67;;;;;16.71;63.73;101664.00;5077767;27;45296;-64
2023/05/23 03:10:47;;;;;;;;;27.00;22.67;;;;;16.67;63.93;101671.53;5077905;28;45385;-61
2023/05/23 03:13:12;;;;;;;;;32.33;26.00;;;;;16.65;64.09;101673.56;5077621;27;45339;-65
2023/05/23 03:15:37;;;;;;;;;29.00;23.33;;;;;16.61;63.57;101663.31;5077632;27;45465;-69
2023/05/23 03:18:02;;;;;;;;;34.67;24.33;;;;;16.60;63.50;101659.78;5077484;27;45459;-68
2023/05/23 03:20:28;;;;;;;;;36.00;27.33;;;;;16.54;64.12;101664.97;5077829;27;45358;-63
2023/05/23 03:22:53;;;;;;;;;30.00;23.33;;;;;16.55;63.15;101667.47;5078062;27;45368;-64
2023/05/23 03:25:19;;;;;;;;;31.33;25.33;;;;;16.49;63.82;101665.44;5077216;27;45884;-62
2023/05/23 03:27:44;;;;;;;;;27.00;23.00;;;;;16.48;64.00;101666.47;5077229;27;45409;-57
2023/05/23 03:30:10;;;;;;;;;29.00;23.00;;;;;16.46;64.21;101663.06;5077739;27;45697;-66
2023/05/23 03:32:35;;;;;;;;;27.67;24.00;;;;;16.43;64.18;101677.69;5077596;27;45954;-66
2023/05/23 03:35:00;;;;;;;;;26.67;19.67;;;;;16.38;64.15;101680.00;5077570;27;46543;-63
2023/05/23 03:37:26;;;;;;;;;34.33;28.67;;;;;16.31;64.04;101680.84;5079550;27;45358;-42
2023/05/23 03:39:51;;;;;;;;;33.00;26.67;;;;;16.33;64.04;101682.34;5085771;27;45361;-61
2023/05/23 03:42:17;;;;;;;;;29.33;19.67;;;;;16.18;64.25;101667.81;5086966;27;45247;-58
2023/05/23 03:44:42;;;;;;;;;30.67;27.00;;;;;16.24;64.04;101690.53;5085482;27;46026;-66
2023/05/23 03:47:09;;;;;;;;;29.33;25.67;;;;;16.15;64.51;101685.13;5085790;27;45330;-68
2023/05/23 03:49:34;;;;;;;;;31.67;24.67;;;;;16.17;64.42;101693.81;5083955;27;45315;-47
2023/05/23 03:51:59;;;;;;;;;35.33;24.67;;;;;16.07;64.38;101692.28;5081345;27;45580;-42
2023/05/23 03:54:25;;;;;;;;;32.67;26.67;;;;;16.09;64.29;101699.16;5078965;27;46298;-40
2023/05/23 03:56:50;;;;;;;;;27.67;22.67;;;;;16.01;64.67;101691.06;5079776;27;45453;-41
2023/05/23 03:59:16;;;;;;;;;34.67;28.00;;;;;16.01;63.99;101691.06;5079598;27;45818;-49
2023/05/23 04:01:41;;;;;;;;;32.67;27.33;;;;;16.01;64.83;101698.28;5077884;27;45406;-39
2023/05/23 04:04:06;;;;;;;;;35.00;23.67;;;;;15.98;64.93;101710.19;5077430;27;45409;-41
2023/05/23 04:06:32;;;;;;;;;33.00;25.00;;;;;15.98;65.20;101706.66;5076996;27;45401;-42
2023/05/23 04:08:57;;;;;;;;;26.67;21.33;;;;;15.94;64.86;101698.91;5076600;27;45383;-44
2023/05/23 04:11:23;;;;;;;;;32.00;25.67;;;;;15.89;65.21;101701.25;5076950;27;45435;-39
2023/05/23 04:13:48;;;;;;;;;27.00;23.67;;;;;15.87;64.79;101708.59;5076388;27;46248;-40
2023/05/23 04:16:14;;;;;;;;;30.33;26.33;;;;;15.84;65.51;101708.91;5076480;27;45414;-40
2023/05/23 04:18:39;;;;;;;;;25.67;22.00;;;;;15.83;64.89;101706.38;5076428;27;45354;-41
2023/05/23 04:21:05;;;;;;;;;30.00;25.33;;;;;15.81;65.30;101708.41;5076657;27;45295;-40
2023/05/23 04:23:30;;;;;;;;;33.33;25.00;;;;;15.75;65.83;101707.16;5075745;27;45484;-52
2023/05/23 04:25:58;;;;;;;;;32.67;24.00;;;;;15.76;64.95;101710.69;5076417;27;45317;-39
2023/05/23 04:28:25;;;;;;;;;26.33;22.00;;;;;15.72;66.13;101718.22;5076483;27;45479;-49
2023/05/23 04:30:50;;;;;;;;;28.67;26.00;;;;;15.73;66.12;101719.06;5076620;27;45237;-40
2023/05/23 04:33:16;;;;;;;;;24.67;18.33;;;;;15.70;65.88;101720.22;5075840;27;46080;-53
2023/05/23 04:35:42;;;;;;;;;32.67;22.00;;;;;15.69;65.59;101724.75;5076085;27;45431;-40
2023/05/23 04:38:08;;;;;;;;;27.33;23.33;;;;;15.68;65.65;101716.84;5076193;27;45358;-43
2023/05/23 04:40:34;;;;;;;;;30.00;23.00;;;;;15.66;65.52;101718.84;5076249;27;45395;-43
2023/05/23 04:43:00;;;;;;;;;27.00;24.67;;;;;15.68;65.58;101723.06;5075941;27;46262;-47
2023/05/23 04:45:25;;;;;;;;;26.00;26.00;;;;;15.64;65.79;101721.69;5076401;27;45342;-39
2023/05/23 04:47:53;;;;;;;;;33.00;24.00;;;;;15.60;65.67;101711.41;5076155;27;45440;-41
2023/05/23 04:50:20;;;;;;;;;31.00;24.00;;;;;15.62;66.04;101737.03;5076505;27;45564;-40
2023/05/23 04:52:46;;;;;;;;;28.33;24.00;;;;;15.61;65.88;101727.31;5075594;27;47400;-41
2023/05/23 04:55:11;;;;;;;;;24.67;20.67;;;;;15.62;65.24;101728.16;5076096;27;45413;-43
2023/05/23 04:57:36;;;;;;;;;30.67;22.33;;;;;15.61;66.30;101726.47;5076268;27;45408;-50
2023/05/23 05:00:09;;;;;;;;;23.00;20.00;;;;;15.47;66.69;101704.59;5076038;27;45395;-56
2023/05/23 05:02:35;;;;;;;;;24.33;24.00;;;;;15.49;67.14;101704.44;5075813;27;46553;-69
2023/05/23 05:05:01;;;;;;;;;27.00;21.00;;;;;15.61;67.12;101727.31;5075073;27;45254;-71
2023/05/23 05:07:28;;;;;;;;;23.67;21.00;;;;;15.56;66.86;101718.06;5076101;27;45432;-70
2023/05/23 05:09:53;;;;;;;;;33.00;25.00;;;;;15.62;66.18;101728.16;5076223;27;45561;-64
2023/05/23 05:12:18;;;;;;;;;26.33;24.67;;;;;15.63;66.55;101730.72;5075448;27;45862;-69
2023/05/23 05:14:44;;;;;;;;;24.67;22.00;;;;;15.61;66.65;101735.38;5076010;27;45297;-41
2023/05/23 05:17:09;;;;;;;;;21.33;20.00;;;;;15.61;66.57;101735.38;5076055;27;45354;-66
2023/05/23 05:19:35;;;;;;;;;27.33;22.67;;;;;15.60;67.00;101744.41;5075952;27;45155;-42
2023/05/23 05:22:00;;;;;;;;;32.00;24.00;;;;;15.60;66.69;101732.84;5075409;27;45491;-41
2023/05/23 05:24:26;;;;;;;;;29.67;20.67;;;;;15.57;67.10;101734.00;5075415;27;45287;-47
2023/05/23 05:26:52;;;;;;;;;30.33;24.67;;;;;15.62;67.16;101737.03;5075796;27;45329;-41
2023/05/23 05:29:18;;;;;;;;;27.33;24.00;;;;;15.64;67.03;101740.47;5076037;28;45323;-49
2023/05/23 05:31:44;;;;;;;;;29.67;24.67;;;;;15.66;67.09;101737.63;5075599;27;46315;-59
2023/05/23 05:34:09;;;;;;;;;21.00;18.00;;;;;15.71;67.34;101752.22;5075452;27;45518;-68
2023/05/23 05:36:35;;;;;;;;;20.67;20.00;;;;;15.73;67.63;101738.69;5076549;28;45367;-43
2023/05/23 05:39:00;;;;;;;;;24.33;21.33;;;;;15.76;67.32;101746.44;5075840;27;45387;-66
2023/05/23 05:41:26;;;;;;;;;25.00;19.67;;;;;15.79;66.62;101745.25;5075759;27;46306;-56
2023/05/23 05:43:51;;;;;;;;;22.33;20.33;;;;;15.76;66.68;101740.19;5075387;27;45451;-59
2023/05/23 05:46:17;;;;;;;;;20.00;20.00;;;;;15.72;67.08;101737.00;5075555;27;45421;-66
2023/05/23 05:48:42;;;;;;;;;23.00;18.67;;;;;15.76;67.03;101749.13;5075511;27;45458;-62
2023/05/23 05:51:07;;;;;;;;;18.00;14.00;;;;;15.78;66.61;101757.00;5075488;27;45437;-66
2023/05/23 05:53:32;;;;;;;;;19.00;17.33;;;;;15.77;66.14;101747.25;5075388;27;45426;-67
2023/05/23 05:55:58;;;;;;;;;27.33;19.67;;;;;15.80;66.51;101752.28;5075467;27;45349;-46
2023/05/23 05:58:24;;;;;;;;;18.67;16.67;;;;;15.80;66.68;101753.16;5075888;27;45539;-42
2023/05/23 06:00:49;;;;;;;;;23.67;18.33;;;;;15.79;66.76;101748.78;5075085;27;46113;-58
2023/05/23 06:03:14;;;;;;;;;20.67;17.33;;;;;15.69;67.24;101735.47;5075242;27;45363;-59
2023/05/23 06:05:40;;;;;;;;;31.33;20.33;;;;;15.84;67.25;101757.19;5075140;27;45388;-59
2023/05/23 06:08:06;;;;;;;;;22.67;16.00;;;;;15.86;66.90;101767.78;5075648;27;45375;-54
2023/05/23 06:10:31;;;;;;;;;20.67;17.67;;;;;15.86;67.10;101767.78;5073763;28;46414;-60
2023/05/23 06:12:58;;;;;;;;;19.33;17.00;;;;;15.87;66.66;101764.09;5073599;28;45367;-54
2023/05/23 06:15:24;;;;;;;;;29.00;21.33;;;;;15.91;67.26;101773.53;5075622;27;45446;-45
2023/05/23 06:17:50;;;;;;;;;23.67;19.00;;;;;15.94;66.87;101762.47;5077691;27;45270;-59
2023/05/23 06:20:15;;;;;;;;;27.00;18.67;;;;;15.94;67.14;101759.81;5077987;27;46383;-47
2023/05/23 06:22:41;;;;;;;;;25.33;20.00;;;;;15.99;66.80;101759.31;5078418;27;45432;-66
2023/05/23 06:25:06;;;;;;;;;18.00;14.33;;;;;16.02;66.73;101769.75;5078370;27;45317;-58
2023/05/23 06:27:32;;;;;;;;;26.33;20.00;;;;;16.02;66.68;101762.53;5078660;27;45414;-62
2023/05/23 06:29:57;;;;;;;;;24.00;17.00;;;;;16.02;66.62;101772.44;5078275;27;46264;-43
2023/05/23 06:32:22;;;;;;;;;17.33;14.67;;;;;16.06;66.92;101776.50;5078301;27;45335;-67
2023/05/23 06:34:48;;;;;;;;;29.67;21.00;;;;;16.06;66.73;101771.13;5078450;27;45446;-67
2023/05/23 06:37:13;;;;;;;;;25.00;17.00;;;;;16.07;66.95;101770.97;5111867;27;45388;-63
2023/05/23 06:39:38;;;;;;;;;26.00;18.33;;;;;16.10;66.93;101769.81;5078093;27;47244;-60
2023/05/23 06:42:04;;;;;;;;;20.00;20.00;;;;;16.05;66.70;101775.63;5078312;27;45353;-64
2023/05/23 06:44:29;;;;;;;;;17.00;14.33;;;;;16.09;66.75;101778.84;5111324;27;45468;-64
2023/05/23 06:46:56;;;;;;;;;23.33;17.00;;;;;16.06;67.07;101782.69;5078876;27;45321;-66
2023/05/23 06:49:22;;;;;;;;;19.67;15.33;;;;;16.08;66.91;101774.47;5078030;27;45733;-42
2023/05/23 06:51:48;;;;;;;;;42.67;33.33;;;;;16.10;66.48;101789.44;5078198;27;45389;-65
2023/05/23 06:54:13;;;;;;;;;26.67;21.33;;;;;16.11;67.30;101791.13;5078216;27;45244;-48
2023/05/23 06:56:39;;;;;;;;;26.67;17.33;;;;;16.11;67.00;101796.50;5078649;27;45316;-62
2023/05/23 06:59:04;;;;;;;;;24.33;21.00;;;;;16.13;67.18;101799.84;5077490;27;45351;-64
2023/05/23 07:01:30;;;;;;;;;23.33;18.67;;;;;16.13;67.20;101805.22;5077716;27;45338;-44
2023/05/23 07:03:55;;;;;;;;;21.33;17.33;;;;;16.17;66.99;101801.22;5078206;27;45341;-66
2023/05/23 07:06:20;;;;;;;;;24.67;19.00;;;;;16.20;66.05;101813.50;5078157;27;45503;-65
2023/05/23 07:08:46;;;;;;;;;20.67;18.00;;;;;16.14;66.30;101790.81;5077968;27;45399;-67
2023/05/23 07:11:11;;;;;;;;;22.00;18.33;;;;;16.22;66.21;101816.84;5077818;27;45635;-63
2023/05/23 07:13:36;;;;;;;;;20.67;18.00;;;;;16.19;66.45;101815.34;5077788;27;45430;-65
2023/05/23 07:16:02;;;;;;;;;20.00;19.00;;;;;16.23;66.70;101820.41;5078120;27;45365;-62
2023/05/23 07:18:27;;;;;;;;;28.00;22.00;;;;;16.21;66.24;101823.22;5077764;27;47037;-50
2023/05/23 07:20:53;;;;;;;;;21.00;18.00;;;;;16.19;66.50;101820.69;5077550;27;45420;-66
2023/05/23 07:23:18;;;;;;;;;25.00;22.33;;;;;16.20;66.73;101833.13;5077876;27;45861;-66
2023/05/23 07:25:45;;;;;;;;;23.67;18.67;;;;;16.21;66.35;101821.38;5077752;27;45364;-60
2023/05/23 07:28:10;;;;;;;;;24.33;19.33;;;;;16.24;66.24;101820.22;5074810;27;46086;-65
2023/05/23 07:30:35;;;;;;;;;23.00;20.33;;;;;16.27;65.88;101827.13;5077424;27;45391;-63
2023/05/23 07:33:01;;;;;;;;;24.67;22.33;;;;;16.27;66.25;101822.59;5077629;27;45375;-62
2023/05/23 07:35:26;;;;;;;;;26.33;18.33;;;;;16.24;66.47;101819.38;5077636;27;45743;-64
2023/05/23 07:37:52;;;;;;;;;24.67;22.00;;;;;16.23;67.05;101831.13;5079343;27;45495;-58
2023/05/23 07:40:18;;;;;;;;;27.00;22.00;;;;;16.23;66.70;101831.13;5077127;27;45434;-49
2023/05/23 07:42:44;;;;;;;;;24.33;21.00;;;;;16.26;66.60;101836.16;5089927;27;45493;-72
2023/05/23 07:45:10;;;;;;;;;22.00;19.00;;;;;16.28;66.57;101834.19;5075820;27;45438;-76
2023/05/23 07:47:35;;;;;;;;;26.00;23.00;;;;;16.32;65.93;101840.94;5078580;27;45808;-52
2023/05/23 07:50:04;;;;;;;;;29.67;21.33;;;;;16.19;66.06;101820.69;5074850;27;45493;-75
2023/05/23 07:52:32;;;;;;;;;28.67;23.67;;;;;16.25;66.21;101821.91;5095740;27;45493;-76
2023/05/23 07:54:58;;;;;;;;;23.67;21.67;;;;;16.38;66.08;101842.97;5095196;27;46508;-50
2023/05/23 07:57:24;;;;;;;;;23.33;23.33;;;;;16.45;66.01;101839.50;5094707;27;46078;-73
2023/05/23 07:59:51;;;;;;;;;25.33;20.67;;;;;16.50;65.71;101843.56;5095015;27;45303;-51
2023/05/23 08:02:16;;;;;;;;;26.00;19.67;;;;;16.43;65.60;101819.16;5095611;27;45430;-66
2023/05/23 08:04:42;;;;;;;;;24.00;20.00;;;;;16.50;65.21;101830.13;5095238;27;45397;-67
2023/05/23 08:07:08;;;;;;;;;20.00;17.67;;;;;16.50;65.46;101849.75;5094737;27;46358;-63
2023/05/23 08:09:34;;;;;;;;;17.67;16.67;;;;;16.44;65.43;101835.13;5111524;27;45878;-68
2023/05/23 08:12:00;;;;;;;;;22.00;20.00;;;;;16.58;65.46;101840.91;5094704;27;45484;-56
2023/05/23 08:14:25;;;;;;;;;23.00;17.33;;;;;16.61;65.86;101848.66;5090514;27;46445;-68
2023/05/23 08:16:50;;;;;;;;;16.33;14.33;;;;;16.57;65.49;101848.13;5090472;27;46261;-63
2023/05/23 08:19:16;;;;;;;;;20.67;16.00;;;;;16.61;65.58;101848.66;5078892;27;45426;-76
2023/05/23 08:21:42;;;;;;;;;25.00;19.67;;;;;16.61;65.38;101846.81;5077452;27;45406;-66
2023/05/23 08:24:07;;;;;;;;;23.00;17.00;;;;;16.63;65.38;101852.84;5078211;27;45350;-75
2023/05/23 08:26:34;;;;;;;;;18.00;15.00;;;;;16.56;64.89;101838.41;5078964;28;45950;-72
2023/05/23 08:29:01;;;;;;;;;23.00;17.67;;;;;16.66;65.25;101847.19;5079392;27;45454;-61
2023/05/23 08:31:27;;;;;;;;;23.33;18.00;;;;;16.63;64.86;101844.81;5079048;27;45350;-79
2023/05/23 08:33:53;;;;;;;;;25.00;20.33;;;;;16.72;65.12;101848.38;5077587;27;45460;-66
2023/05/23 08:36:18;;;;;;;;;24.67;20.67;;;;;16.80;65.03;101847.59;5077601;27;45403;-63
2023/05/23 08:38:43;;;;;;;;;17.33;15.00;;;;;16.85;64.57;101835.38;5078191;27;45401;-67
2023/05/23 08:41:17;;;;;;;;;23.00;17.33;;;;;16.96;64.34;101853.91;5076448;27;45411;-52
2023/05/23 08:43:43;;;;;;;;;21.00;17.33;;;;;16.95;64.01;101848.69;5078817;27;45340;-62
2023/05/23 08:46:08;;;;;;;;;17.33;17.33;;;;;16.91;63.92;101839.28;5076783;27;46939;-55
2023/05/23 08:48:36;;;;;;;;;24.00;18.00;;;;;17.00;63.91;101854.41;5077408;27;45322;-67
2023/05/23 08:51:03;;;;;;;;;23.67;16.33;;;;;17.09;63.86;101864.19;5076672;27;45506;-66
2023/05/23 08:53:30;;;;;;;;;18.33;15.33;;;;;17.13;63.38;101862.03;5077190;27;45359;-66
2023/05/23 08:56:01;;;;;;;;;21.67;14.33;;;;;17.12;63.79;101861.19;5076852;27;45788;-68
2023/05/23 08:58:28;;;;;;;;;18.00;17.33;;;;;17.16;63.74;101850.97;5076688;27;45390;-52
2023/05/23 09:00:54;;;;;;;;;17.67;16.00;;;;;17.15;63.88;101858.19;5076474;27;45450;-69
2023/05/23 09:03:20;;;;;;;;;23.00;20.67;;;;;17.05;64.47;101846.72;5077581;28;45296;-56
2023/05/23 09:05:46;;;;;;;;;25.33;16.33;;;;;17.08;64.98;101862.53;5078896;28;46001;-65
2023/05/23 09:08:12;;;;;;;;;21.67;20.00;;;;;17.04;64.92;101874.59;5079740;28;45241;-67
2023/05/23 09:10:38;;;;;;;;;23.00;20.33;;;;;17.01;64.94;101869.53;5081021;27;45374;-70
2023/05/23 09:13:04;;;;;;;;;20.00;17.67;;;;;17.02;64.94;101873.91;5081258;27;45383;-73
2023/05/23 09:15:30;;;;;;;;;16.67;14.67;;;;;17.07;64.93;101876.13;5079953;28;46124;-53
2023/05/23 09:18:03;;;;;;;;;23.33;17.33;;;;;17.10;64.90;101873.94;5079352;28;45352;-66
2023/05/23 09:20:28;;;;;;;;;19.00;15.67;;;;;17.12;64.55;101879.19;5081662;27;45476;-66
2023/05/23 09:22:54;;;;;;;;;23.67;20.67;;;;;17.08;64.26;101880.50;5081536;27;45411;-76
2023/05/23 09:25:20;;;;;;;;;23.67;20.67;;;;;17.04;65.13;101877.28;5076273;27;46215;-75
2023/05/23 09:27:45;;;;;;;;;24.00;22.00;;;;;17.00;65.03;101877.78;5074525;28;45413;-72
2023/05/23 09:30:12;;;;;;;;;24.00;18.67;;;;;16.89;65.65;101873.50;5076641;27;45371;-74
2023/05/23 09:32:38;;;;;;;;;32.67;19.00;;;;;16.90;64.96;101877.91;5076466;27;45706;-71
2023/05/23 09:35:05;;;;;;;;;24.33;17.67;;;;;16.88;65.31;101871.84;5076056;27;46009;-66
2023/05/23 09:37:39;;;;;;;;;26.33;21.67;;;;;16.87;64.92;101875.53;5076153;28;45159;-67
2023/05/23 09:40:09;;;;;;;;;28.00;24.67;;;;;16.90;65.03;101877.91;5075640;27;45325;-62
2023/05/23 09:42:35;;;;;;;;;22.00;19.00;;;;;16.92;65.18;101875.88;5075391;27;45474;-54
2023/05/23 09:45:01;;;;;;;;;27.00;21.67;;;;;16.96;64.76;101872.72;5074936;28;45900;-45
2023/05/23 09:47:26;;;;;;;;;22.67;19.67;;;;;16.98;64.80;101866.31;5075575;28;45391;-63
2023/05/23 09:49:52;;;;;;;;;28.67;23.67;;;;;17.15;64.14;101882.38;5075472;27;45336;-61
2023/05/23 09:52:20;;;;;;;;;30.67;21.00;;;;;17.33;63.85;101873.38;5076916;27;45487;-65
2023/05/23 09:54:46;;;;;;;;;23.67;22.67;;;;;17.49;63.47;101878.81;5078749;27;46109;-65
2023/05/23 09:57:14;;;;;;;;;30.00;21.00;;;;;17.45;63.29;101878.28;5078581;27;45319;-60
2023/05/23 09:59:44;;;;;;;;;26.33;23.33;;;;;17.35;63.22;101877.56;5079079;27;45375;-63
2023/05/23 10:02:15;;;;;;;;;27.67;21.33;;;;;17.28;63.64;101881.94;5079060;28;45297;-57
2023/05/23 10:04:41;;;;;;;;;28.33;23.00;;;;;17.32;64.08;101885.13;5078214;27;47419;-62
2023/05/23 10:07:14;;;;;;;;;28.33;26.33;;;;;17.11;63.46;101823.72;5078091;27;45409;-44
2023/05/23 10:09:43;;;;;;;;;24.00;21.00;;;;;17.73;62.55;101871.75;5078728;27;45466;-63
2023/05/23 10:12:18;;;;;;;;;18.00;17.67;;;;;18.03;61.77;101884.59;5078182;27;45316;-43
2023/05/23 10:14:51;;;;;;;;;20.67;18.67;;;;;18.23;61.12;101893.19;5078253;27;45399;-46
2023/05/23 10:17:40;;;;;;;;;15.00;14.67;;;;;18.16;60.73;101873.31;5078335;27;45416;-47
2023/05/23 10:20:11;;;;;;;;;15.00;15.00;;;;;18.05;60.39;101884.44;5078148;27;45329;-43
2023/05/23 10:22:37;;;;;;;;;14.33;14.33;;;;;17.99;60.05;101875.19;5078552;27;45419;-43
2023/05/23 10:25:04;;;;;;;;;18.33;15.33;;;;;17.89;60.44;101878.03;5077929;28;45513;-51
2023/05/23 10:27:30;;;;;;;;;17.67;15.33;;;;;17.93;60.17;101883.94;5078368;27;45374;-58
2023/05/23 10:29:57;;;;;;;;;16.00;13.33;;;;;17.90;59.83;101879.72;5078673;27;45282;-56
2023/05/23 10:32:25;;;;;;;;;16.67;13.67;;;;;17.98;59.99;101875.34;5078311;28;45548;-58
2023/05/23 10:35:06;;;;;;;;;20.00;15.67;;;;;18.04;59.84;101882.78;5077719;27;47080;-62
2023/05/23 10:37:31;;;;;;;;;20.33;14.00;;;;;18.00;59.91;101886.81;5077907;27;45317;-51
2023/05/23 10:40:06;;;;;;;;;21.67;16.33;;;;;17.89;60.15;101893.34;5076763;28;45305;-42
2023/05/23 10:42:44;;;;;;;;;17.00;13.00;;;;;17.81;60.57;101893.34;5078250;27;45592;-62
2023/05/23 10:45:17;;;;;;;;;20.00;15.67;;;;;17.77;60.90;101882.06;5077434;27;46109;-63
2023/05/23 10:47:42;;;;;;;;;18.67;18.67;;;;;17.75;60.64;101891.31;5076519;27;45979;-63
2023/05/23 10:50:12;;;;;;;;;16.33;15.67;;;;;17.71;60.83;101888.09;5078003;27;45443;-63
2023/05/23 10:52:40;;;;;;;;;22.00;16.67;;;;;17.56;60.74;101868.19;5077764;27;45358;-63
2023/05/23 10:55:14;;;;;;;;;24.00;16.67;;;;;17.78;60.96;101888.28;5077548;27;45352;-63
2023/05/23 10:57:42;;;;;;;;;18.67;18.67;;;;;17.87;60.78;101874.69;5077384;27;45289;-59
2023/05/23 11:00:13;;;;;;;;;25.00;17.00;;;;;18.03;60.38;101879.22;5077820;27;45383;-60
2023/05/23 11:02:51;;;;;;;;;18.33;16.33;;;;;18.12;60.20;101880.09;5077122;27;45293;-55
2023/05/23 11:05:19;;;;;;;;;20.33;19.00;;;;;18.15;59.54;101877.03;5076869;27;45383;-64
2023/05/23 11:07:46;;;;;;;;;25.00;18.00;;;;;18.04;59.71;101861.25;5073760;27;45933;-60